Estación Meteorológica Peña el Pijo (Robertgarden) [ 01/30/23 13:50:42 CET ]

Fecha Hora Presion(HPa) Temp (°C) Humedad % Rocio (°C) Viento ( m/s) Direccion Lluvia 1Hora(mm) Lluvia 24H(mm) LLuvia Total(mm)
2010-Aug-16 01:01:13 1013.800 15.6 82 12.6         136.75
2010-Aug-16 02:01:15 1014.000 15.1 85 12.6         136.75
2010-Aug-16 03:01:18 1013.500 14.5 86 12.2         136.75
2010-Aug-16 04:01:14 1013.300 14.3 88 12.3         136.75
2010-Aug-16 05:01:18 1013.200 13.8 88 11.8         136.75
2010-Aug-16 06:01:18 1013.300 13.4 89 11.6         136.75
2010-Aug-16 07:01:17 1013.500 13.2 90 11.6         136.75
2010-Aug-16 08:01:15 1013.600 13.3 91 11.9         136.75
2010-Aug-16 09:01:14 1014.100 16.6 90 15.0         136.75
2010-Aug-16 10:01:13 1014.400 18.9 81 15.6         136.75
2010-Aug-16 11:01:17 1014.600 23.4 63 15.9         136.75
2010-Aug-16 12:01:14 1015.100 23.2 58 14.4 0.7 ENE     136.75
2010-Aug-16 13:01:13 1015.300 22.3 62 14.7         136.75
2010-Aug-16 14:01:11 1015.000 23.4 61 15.4 0.8 NE     136.75
2010-Aug-16 15:01:14 1014.800 25.3 55 15.6         136.75
2010-Aug-16 16:01:17 1013.800 26.2 52 15.7 1.4 NE     136.75
2010-Aug-16 17:01:46 1013.600 24.2 57 15.1         136.75
2010-Aug-16 18:01:44 1014.100 22.3 66 15.6         136.75
2010-Aug-16 19:01:47 1014.100 22.4 64 15.2         136.75
2010-Aug-16 20:01:44 1014.900 20.5 75 15.9     1.03 1.03 137.78
2010-Aug-16 21:01:18 1015.200 18.1 87 15.9     2.07 4.14 140.89
2010-Aug-16 22:01:18 1016.100 17.6 89 15.8     0.51 4.66 141.41
2010-Aug-16 23:01:15 1016.000 17.2 91 15.8     1.55 6.21 142.96

Temperatura Máxima:26°    Temperatura Mínima:13°
Presión Máxima:1016.100 Hpa    Presión Mínima:1013.200 Hpa


Volver